createdAt,value
2022-12-20T00:01:33.204Z,102334.44
2022-12-20T00:04:02.581Z,102335.50
2022-12-20T00:06:29.466Z,102331.69
2022-12-20T00:08:57.449Z,102330.16
2022-12-20T00:11:24.790Z,102325.66
2022-12-20T00:13:51.816Z,102329.47
2022-12-20T00:16:20.455Z,102322.00
2022-12-20T00:18:47.731Z,102310.66
2022-12-20T00:21:15.354Z,102307.28
2022-12-20T00:23:42.619Z,102309.47
2022-12-20T00:26:11.649Z,102304.22
2022-12-20T00:28:38.915Z,102298.28
2022-12-20T00:31:06.518Z,102297.34
2022-12-20T00:33:34.390Z,102294.25
2022-12-20T00:36:01.814Z,102290.72
2022-12-20T00:38:28.716Z,102289.91
2022-12-20T00:41:05.989Z,102289.00
2022-12-20T00:43:33.254Z,102290.06
2022-12-20T00:46:00.330Z,102282.88
2022-12-20T00:48:27.438Z,102284.16
2022-12-20T00:50:58.243Z,102287.31
2022-12-20T00:53:26.718Z,102284.78
2022-12-20T00:55:53.556Z,102282.72
2022-12-20T00:58:20.411Z,102281.28
2022-12-20T01:00:53.873Z,102278.63
2022-12-20T01:03:23.668Z,102280.28
2022-12-20T01:05:51.359Z,102280.28
2022-12-20T01:08:17.962Z,102285.94
2022-12-20T01:10:44.538Z,102290.19
2022-12-20T01:13:11.266Z,102293.53
2022-12-20T01:15:37.851Z,102287.53
2022-12-20T01:18:04.521Z,102288.75
2022-12-20T01:20:31.092Z,102284.78
2022-12-20T01:22:57.764Z,102275.56
2022-12-20T01:25:25.278Z,102274.66
2022-12-20T01:27:52.279Z,102274.66
2022-12-20T01:30:18.944Z,102269.53
2022-12-20T01:32:45.594Z,102268.31
2022-12-20T01:35:12.795Z,102270.06
2022-12-20T01:37:39.386Z,102267.25
2022-12-20T01:40:06.448Z,102276.09
2022-12-20T01:42:33.045Z,102277.09
2022-12-20T01:44:59.968Z,102281.72
2022-12-20T01:47:28.498Z,102271.91
2022-12-20T01:49:56.126Z,102268.69
2022-12-20T01:52:31.334Z,102257.03
2022-12-20T01:55:04.020Z,102254.38
2022-12-20T01:57:41.170Z,102253.84
2022-12-20T02:00:10.012Z,102257.88
2022-12-20T02:02:44.010Z,102250.84
2022-12-20T02:05:11.637Z,102254.53
2022-12-20T02:07:38.806Z,102249.47
2022-12-20T02:10:06.495Z,102252.31
2022-12-20T02:12:43.508Z,102245.91
2022-12-20T02:15:22.547Z,102238.72
2022-12-20T02:17:52.474Z,102246.06
2022-12-20T02:20:38.556Z,102235.72
2022-12-20T02:23:35.469Z,102234.84
2022-12-20T02:26:19.929Z,102229.34
2022-12-20T02:28:49.626Z,102232.19
2022-12-20T02:31:17.635Z,102236.00
2022-12-20T02:33:48.015Z,102235.47
2022-12-20T02:36:16.251Z,102233.78
2022-12-20T02:38:43.077Z,102232.09
2022-12-20T02:41:19.672Z,102226.94
2022-12-20T02:44:07.433Z,102230.72
2022-12-20T02:46:35.226Z,102219.00
2022-12-20T02:49:03.454Z,102218.69
2022-12-20T02:51:37.160Z,102217.88
2022-12-20T02:54:04.518Z,102213.06
2022-12-20T02:56:31.753Z,102208.56
2022-12-20T02:59:02.359Z,102205.91
2022-12-20T03:01:31.926Z,102208.88
2022-12-20T03:03:59.313Z,102203.84
2022-12-20T03:06:25.946Z,102203.91
2022-12-20T03:08:52.960Z,102190.06
2022-12-20T03:11:22.331Z,102200.03
2022-12-20T03:13:48.979Z,102207.88
2022-12-20T03:16:15.729Z,102203.38
2022-12-20T03:18:42.459Z,102204.38
2022-12-20T03:21:09.442Z,102202.41
2022-12-20T03:23:36.129Z,102199.59
2022-12-20T03:26:02.697Z,102203.91
2022-12-20T03:28:41.335Z,102198.56
2022-12-20T03:31:09.781Z,102195.22
2022-12-20T03:33:44.189Z,102188.22
2022-12-20T03:36:11.663Z,102192.28
2022-12-20T03:38:38.215Z,102195.84
2022-12-20T03:41:06.567Z,102190.09
2022-12-20T03:43:33.106Z,102183.06
2022-12-20T03:45:59.733Z,102177.06
2022-12-20T03:48:28.608Z,102184.06
2022-12-20T03:50:55.462Z,102174.41
2022-12-20T03:53:22.050Z,102170.56
2022-12-20T03:55:48.739Z,102167.47
2022-12-20T03:58:15.913Z,102174.31
2022-12-20T04:00:42.786Z,102170.28
2022-12-20T04:03:47.853Z,102178.81
2022-12-20T04:06:14.842Z,102170.66
2022-12-20T04:08:41.975Z,102177.97
2022-12-20T04:11:19.227Z,102165.03
2022-12-20T04:13:54.565Z,102171.56
2022-12-20T04:16:23.112Z,102171.56
2022-12-20T04:18:50.008Z,102178.19
2022-12-20T04:21:28.832Z,102186.19
2022-12-20T04:23:58.320Z,102182.66
2022-12-20T04:26:31.259Z,102191.50
2022-12-20T04:28:59.876Z,102186.47
2022-12-20T04:31:27.008Z,102185.38
2022-12-20T04:33:54.554Z,102191.28
2022-12-20T04:36:21.813Z,102177.69
2022-12-20T04:38:50.983Z,102177.78
2022-12-20T04:41:23.998Z,102180.88
2022-12-20T04:43:57.472Z,102174.94
2022-12-20T04:46:30.240Z,102187.94
2022-12-20T04:48:59.830Z,102176.22
2022-12-20T04:51:28.463Z,102177.44
2022-12-20T04:53:55.308Z,102172.94
2022-12-20T04:56:34.308Z,102166.44
2022-12-20T04:59:07.811Z,102167.16
2022-12-20T05:01:35.250Z,102168.22
2022-12-20T05:04:02.310Z,102172.13
2022-12-20T05:06:32.526Z,102171.69
2022-12-20T05:08:59.222Z,102173.06
2022-12-20T05:11:26.386Z,102168.72
2022-12-20T05:13:53.201Z,102162.84
2022-12-20T05:16:21.313Z,102165.56
2022-12-20T05:18:49.552Z,102156.75
2022-12-20T05:21:35.813Z,102152.97
2022-12-20T05:24:22.062Z,102153.63
2022-12-20T05:26:56.466Z,102152.97
2022-12-20T05:29:23.102Z,102148.31
2022-12-20T05:31:49.844Z,102148.06
2022-12-20T05:34:16.601Z,102147.91
2022-12-20T05:36:48.424Z,102142.72
2022-12-20T05:39:15.244Z,102147.06
2022-12-20T05:41:44.527Z,102141.59
2022-12-20T05:44:11.360Z,102150.28
2022-12-20T05:46:42.085Z,102155.63
2022-12-20T05:49:14.116Z,102146.75
2022-12-20T05:51:40.788Z,102151.69
2022-12-20T05:54:17.743Z,102146.53
2022-12-20T05:56:50.870Z,102147.69
2022-12-20T05:59:22.424Z,102149.34
2022-12-20T06:01:49.229Z,102144.88
2022-12-20T06:04:16.029Z,102143.47
2022-12-20T06:06:43.754Z,102146.16
2022-12-20T06:09:13.626Z,102152.34
2022-12-20T06:11:48.121Z,102148.56
2022-12-20T06:14:15.306Z,102149.53
2022-12-20T06:16:45.687Z,102139.03
2022-12-20T06:19:19.430Z,102145.78
2022-12-20T06:21:48.697Z,102135.66
2022-12-20T06:24:18.849Z,102139.09
2022-12-20T06:26:45.969Z,102142.97
2022-12-20T06:29:14.381Z,102127.59
2022-12-20T06:31:46.173Z,102134.28
2022-12-20T06:34:13.778Z,102127.31
2022-12-20T06:36:41.959Z,102132.47
2022-12-20T06:39:14.523Z,102131.19
2022-12-20T06:41:49.826Z,102131.63
2022-12-20T06:44:16.622Z,102134.44
2022-12-20T06:46:43.235Z,102135.44
2022-12-20T06:49:10.298Z,102138.94
2022-12-20T06:51:37.280Z,102145.50
2022-12-20T06:54:04.982Z,102139.19
2022-12-20T06:56:40.871Z,102138.22
2022-12-20T06:59:10.074Z,102137.91
2022-12-20T07:01:37.100Z,102143.38
2022-12-20T07:04:04.036Z,102140.56
2022-12-20T07:06:30.633Z,102141.16
2022-12-20T07:08:57.226Z,102142.97
2022-12-20T07:11:23.798Z,102137.66
2022-12-20T07:13:56.779Z,102139.34
2022-12-20T07:16:23.859Z,102144.50
2022-12-20T07:18:52.575Z,102144.09
2022-12-20T07:21:19.758Z,102141.59
2022-12-20T07:23:46.938Z,102136.44
2022-12-20T07:26:14.360Z,102140.22
2022-12-20T07:28:41.067Z,102134.22
2022-12-20T07:31:07.805Z,102139.59
2022-12-20T07:33:34.622Z,102145.25
2022-12-20T07:36:02.196Z,102139.91
2022-12-20T07:38:29.312Z,102139.59
2022-12-20T07:40:56.095Z,102140.03
2022-12-20T07:43:22.742Z,102140.56
2022-12-20T07:45:53.763Z,102137.31
2022-12-20T07:48:21.951Z,102131.53
2022-12-20T07:50:54.364Z,102145.53
2022-12-20T07:53:22.563Z,102139.75
2022-12-20T07:55:49.307Z,102143.28
2022-12-20T07:58:17.369Z,102134.44
2022-12-20T08:00:44.170Z,102134.81
2022-12-20T08:03:13.895Z,102133.53
2022-12-20T08:05:43.283Z,102141.53
2022-12-20T08:08:09.994Z,102131.72
2022-12-20T08:10:37.106Z,102137.81
2022-12-20T08:13:04.339Z,102133.13
2022-12-20T08:15:30.986Z,102127.47
2022-12-20T08:17:57.908Z,102133.34
2022-12-20T08:20:24.626Z,102128.00
2022-12-20T08:22:51.355Z,102124.34
2022-12-20T08:25:17.878Z,102130.81
2022-12-20T08:27:44.873Z,102134.19
2022-12-20T08:30:11.674Z,102131.88
2022-12-20T08:32:38.330Z,102132.44
2022-12-20T08:35:05.242Z,102136.06
2022-12-20T08:37:31.892Z,102130.47
2022-12-20T08:39:58.445Z,102132.13
2022-12-20T08:42:25.140Z,102135.09
2022-12-20T08:44:51.744Z,102141.22
2022-12-20T08:47:18.406Z,102134.97
2022-12-20T08:49:47.922Z,102134.44
2022-12-20T08:52:15.237Z,102131.75
2022-12-20T08:54:41.806Z,102135.78
2022-12-20T08:57:09.499Z,102137.28
2022-12-20T08:59:36.137Z,102129.13
2022-12-20T09:02:02.862Z,102129.28
2022-12-20T09:04:29.654Z,102134.25
2022-12-20T09:06:56.217Z,102130.75
2022-12-20T09:09:22.859Z,102133.78
2022-12-20T09:11:49.480Z,102131.53
2022-12-20T09:14:16.165Z,102128.38
2022-12-20T09:16:42.759Z,102129.94
2022-12-20T09:19:12.149Z,102131.66
2022-12-20T09:21:38.750Z,102138.03
2022-12-20T09:24:06.255Z,102128.38
2022-12-20T09:26:35.341Z,102127.06
2022-12-20T09:29:02.208Z,102133.38
2022-12-20T09:31:28.928Z,102125.22
2022-12-20T09:33:56.516Z,102125.72
2022-12-20T09:36:23.927Z,102118.56
2022-12-20T09:38:51.250Z,102128.47
2022-12-20T09:41:30.076Z,102128.78
2022-12-20T09:43:57.923Z,102127.31
2022-12-20T09:46:25.160Z,102130.16
2022-12-20T09:48:52.425Z,102129.84
2022-12-20T09:51:21.952Z,102124.31
2022-12-20T09:53:57.833Z,102122.78
2022-12-20T09:56:30.173Z,102117.09
2022-12-20T09:59:01.865Z,102127.97
2022-12-20T10:01:36.243Z,102121.41
2022-12-20T10:04:15.680Z,102121.72
2022-12-20T10:06:54.297Z,102123.06
2022-12-20T10:09:29.901Z,102115.31
2022-12-20T10:11:56.878Z,102120.34
2022-12-20T10:14:42.014Z,102114.16
2022-12-20T10:17:12.743Z,102118.03
2022-12-20T10:19:45.200Z,102114.66
2022-12-20T10:22:19.469Z,102113.47
2022-12-20T10:24:49.488Z,102112.63
2022-12-20T10:27:18.655Z,102105.88
2022-12-20T10:29:46.789Z,102100.97
2022-12-20T10:32:14.720Z,102102.16
2022-12-20T10:34:56.655Z,102106.00
2022-12-20T10:37:23.336Z,102099.00
2022-12-20T10:39:51.035Z,102088.44
2022-12-20T10:42:30.647Z,102083.03
2022-12-20T10:44:57.849Z,102085.19
2022-12-20T10:47:39.723Z,102070.66
2022-12-20T10:50:08.596Z,102081.53
2022-12-20T10:52:35.146Z,102081.47
2022-12-20T10:55:01.763Z,102076.44
2022-12-20T10:57:29.400Z,102065.31
2022-12-20T10:59:57.316Z,102060.31
2022-12-20T11:02:25.416Z,102064.03
2022-12-20T11:05:02.392Z,102055.44
2022-12-20T11:07:33.473Z,102048.00
2022-12-20T11:10:01.545Z,102047.97
2022-12-20T11:12:28.368Z,102047.28
2022-12-20T11:15:09.258Z,102037.88
2022-12-20T11:17:43.548Z,102037.06
2022-12-20T11:20:28.729Z,102040.81
2022-12-20T11:23:14.739Z,102029.56
2022-12-20T11:25:47.327Z,102016.88
2022-12-20T11:28:36.631Z,102012.81
2022-12-20T11:31:23.509Z,102008.38
2022-12-20T11:34:03.407Z,102005.13
2022-12-20T11:36:39.022Z,101998.56
2022-12-20T11:39:05.702Z,101998.22
2022-12-20T11:41:38.058Z,101991.34
2022-12-20T11:44:27.229Z,101994.16
2022-12-20T11:47:12.247Z,101988.44
2022-12-20T11:49:59.805Z,101983.53
2022-12-20T11:52:26.461Z,101979.94
2022-12-20T11:54:59.256Z,101968.44
2022-12-20T11:57:54.841Z,101969.03
2022-12-20T12:00:19.857Z,101957.09
2022-12-20T12:02:58.793Z,101956.06
2022-12-20T12:05:45.841Z,101951.69
2022-12-20T12:08:23.493Z,101951.91
2022-12-20T12:10:56.454Z,101940.00
2022-12-20T12:13:31.218Z,101939.06
2022-12-20T12:16:01.667Z,101939.25
2022-12-20T12:18:30.130Z,101940.34
2022-12-20T12:21:09.012Z,101923.50
2022-12-20T12:23:42.398Z,101919.13
2022-12-20T12:26:24.223Z,101917.06
2022-12-20T12:28:55.332Z,101920.84
2022-12-20T12:31:31.251Z,101917.41
2022-12-20T12:34:06.738Z,101913.88
2022-12-20T12:37:05.667Z,101901.47
2022-12-20T12:39:44.290Z,101904.59
2022-12-20T12:42:10.942Z,101908.13
2022-12-20T12:44:54.567Z,101903.50
2022-12-20T12:47:30.407Z,101894.81
2022-12-20T12:49:57.417Z,101892.75
2022-12-20T12:52:44.666Z,101884.91
2022-12-20T12:55:29.747Z,101881.81
2022-12-20T12:57:57.302Z,101874.97
2022-12-20T13:00:42.696Z,101871.00
2022-12-20T13:03:15.976Z,101870.25
2022-12-20T13:05:43.069Z,101863.66
2022-12-20T13:08:17.351Z,101864.06
2022-12-20T13:10:44.079Z,101854.53
2022-12-20T13:13:21.169Z,101852.47
2022-12-20T13:15:48.890Z,101853.13
2022-12-20T13:18:15.533Z,101842.38
2022-12-20T13:20:42.601Z,101837.75
2022-12-20T13:23:09.237Z,101843.97
2022-12-20T13:25:35.878Z,101838.63
2022-12-20T13:28:22.698Z,101837.63
2022-12-20T13:31:12.370Z,101824.31
2022-12-20T13:33:39.152Z,101825.78
2022-12-20T13:36:26.269Z,101823.09
2022-12-20T13:38:54.513Z,101822.47
2022-12-20T13:41:32.737Z,101815.25
2022-12-20T13:44:10.753Z,101810.25
2022-12-20T13:46:42.581Z,101812.69
2022-12-20T13:49:11.981Z,101807.72
2022-12-20T13:51:38.503Z,101815.75
2022-12-20T13:54:06.697Z,101819.88
2022-12-20T13:56:37.388Z,101816.91
2022-12-20T13:59:19.108Z,101811.53
2022-12-20T14:01:50.428Z,101810.06
2022-12-20T14:04:18.219Z,101802.59
2022-12-20T14:06:45.201Z,101800.94
2022-12-20T14:09:32.160Z,101803.19
2022-12-20T14:12:06.558Z,101806.69
2022-12-20T14:15:01.148Z,101811.88
2022-12-20T14:17:31.301Z,101809.19
2022-12-20T14:20:17.455Z,101805.28
2022-12-20T14:23:05.044Z,101801.31
2022-12-20T14:25:38.946Z,101792.25
2022-12-20T14:28:11.090Z,101795.13
2022-12-20T14:30:42.648Z,101794.75
2022-12-20T14:33:19.381Z,101792.59
2022-12-20T14:35:47.595Z,101782.53
2022-12-20T14:38:20.468Z,101771.59
2022-12-20T14:40:53.639Z,101774.47
2022-12-20T14:43:25.713Z,101778.38
2022-12-20T14:46:06.944Z,101774.19
2022-12-20T14:48:33.582Z,101772.50
2022-12-20T14:51:00.156Z,101785.31
2022-12-20T14:53:30.234Z,101784.03
2022-12-20T14:55:56.858Z,101785.63
2022-12-20T14:58:23.461Z,101794.50
2022-12-20T15:00:57.849Z,101797.38
2022-12-20T15:03:25.643Z,101797.97
2022-12-20T15:05:53.372Z,101789.63
2022-12-20T15:08:27.542Z,101796.59
2022-12-20T15:11:12.441Z,101803.38
2022-12-20T15:13:42.699Z,101800.88
2022-12-20T15:16:12.471Z,101803.28
2022-12-20T15:18:39.161Z,101796.63
2022-12-20T15:21:10.564Z,101802.19
2022-12-20T15:23:41.838Z,101802.78
2022-12-20T15:26:12.355Z,101797.94
2022-12-20T15:28:38.945Z,101792.88
2022-12-20T15:31:05.576Z,101792.06
2022-12-20T15:33:33.454Z,101796.13
2022-12-20T15:36:00.045Z,101792.78
2022-12-20T15:38:54.936Z,101790.88
2022-12-20T15:41:24.730Z,101784.50
2022-12-20T15:43:53.517Z,101788.38
2022-12-20T15:46:20.212Z,101779.78
2022-12-20T15:48:46.820Z,101784.59
2022-12-20T15:51:33.619Z,101788.47
2022-12-20T15:54:01.563Z,101787.81
2022-12-20T15:56:28.489Z,101785.50
2022-12-20T15:58:55.766Z,101784.31
2022-12-20T16:01:39.782Z,101784.69
2022-12-20T16:04:08.162Z,101784.69
2022-12-20T16:06:34.766Z,101790.25
2022-12-20T16:09:01.405Z,101786.91
2022-12-20T16:11:29.619Z,101789.75
2022-12-20T16:13:57.093Z,101791.63
2022-12-20T16:16:28.221Z,101789.31
2022-12-20T16:18:54.902Z,101790.97
2022-12-20T16:21:22.754Z,101787.63
2022-12-20T16:23:52.600Z,101797.06
2022-12-20T16:26:22.018Z,101783.47
2022-12-20T16:28:49.595Z,101782.34
2022-12-20T16:31:22.023Z,101779.66
2022-12-20T16:33:49.325Z,101774.31
2022-12-20T16:36:16.209Z,101778.19
2022-12-20T16:38:42.832Z,101763.31
2022-12-20T16:41:16.971Z,101774.84
2022-12-20T16:43:43.993Z,101771.34
2022-12-20T16:46:16.647Z,101770.53
2022-12-20T16:48:43.854Z,101777.72
2022-12-20T16:51:29.913Z,101773.09
2022-12-20T16:56:44.477Z,101763.38
2022-12-20T16:59:20.636Z,101759.88
2022-12-20T17:01:48.696Z,101762.75
2022-12-20T17:04:16.537Z,101763.84
2022-12-20T17:06:43.340Z,101759.78
2022-12-20T17:11:54.439Z,101753.13
2022-12-20T17:14:21.029Z,101755.16
2022-12-20T17:16:47.789Z,101750.81
2022-12-20T17:19:14.409Z,101749.78
2022-12-20T17:24:26.745Z,101737.78
2022-12-20T17:26:53.338Z,101754.88
2022-12-20T17:29:20.558Z,101771.97
2022-12-20T17:31:47.922Z,101774.84
2022-12-20T17:34:19.155Z,101776.03
2022-12-20T17:36:46.457Z,101776.03
2022-12-20T17:39:13.632Z,101774.53
2022-12-20T17:41:42.554Z,101773.06
2022-12-20T17:44:17.570Z,101766.88
2022-12-20T17:46:44.239Z,101771.41
2022-12-20T17:49:10.862Z,101766.22
2022-12-20T17:51:37.498Z,101761.03
2022-12-20T17:54:04.113Z,101757.44
2022-12-20T17:56:31.857Z,101765.47
2022-12-20T17:58:59.050Z,101756.41
2022-12-20T18:01:26.998Z,101764.63
2022-12-20T18:04:04.402Z,101773.03
2022-12-20T18:06:32.688Z,101771.00
2022-12-20T18:08:59.945Z,101768.31
2022-12-20T18:11:28.256Z,101773.19
2022-12-20T18:13:56.366Z,101773.19
2022-12-20T18:16:25.268Z,101774.25
2022-12-20T18:18:53.428Z,101776.06
2022-12-20T18:21:20.698Z,101768.03
2022-12-20T18:23:47.907Z,101773.19
2022-12-20T18:26:20.669Z,101769.22
2022-12-20T18:28:48.113Z,101769.06
2022-12-20T18:31:16.242Z,101765.72
2022-12-20T18:33:42.854Z,101768.22
2022-12-20T18:36:10.852Z,101769.22
2022-12-20T18:38:38.710Z,101771.06
2022-12-20T18:41:06.380Z,101774.75
2022-12-20T18:43:33.626Z,101768.59
2022-12-20T18:46:04.414Z,101774.38
2022-12-20T18:48:31.460Z,101770.31
2022-12-20T18:51:03.062Z,101769.19
2022-12-20T18:53:31.444Z,101768.84
2022-12-20T18:56:00.889Z,101775.00
2022-12-20T18:58:27.519Z,101761.44
2022-12-20T19:00:57.143Z,101770.31
2022-12-20T19:03:23.864Z,101770.84
2022-12-20T19:05:55.121Z,101775.38
2022-12-20T19:08:22.303Z,101785.78
2022-12-20T19:10:49.297Z,101783.97
2022-12-20T19:13:17.777Z,101776.09
2022-12-20T19:15:44.981Z,101784.41
2022-12-20T19:18:11.578Z,101780.72
2022-12-20T19:20:39.057Z,101774.75
2022-12-20T19:23:05.735Z,101777.41
2022-12-20T19:25:35.805Z,101768.16
2022-12-20T19:28:02.890Z,101762.81
2022-12-20T19:30:30.147Z,101764.31
2022-12-20T19:32:56.966Z,101760.81
2022-12-20T19:35:54.034Z,101775.88
2022-12-20T19:38:10.171Z,101766.16
2022-12-20T19:40:36.908Z,101767.53
2022-12-20T19:43:03.581Z,101771.03
2022-12-20T19:45:30.171Z,101760.31
2022-12-20T19:47:56.820Z,101754.38
2022-12-20T19:50:23.426Z,101757.25
2022-12-20T19:52:51.456Z,101756.31
2022-12-20T19:55:18.146Z,101749.28
2022-12-20T19:57:44.815Z,101750.28
2022-12-20T20:00:11.721Z,101756.63
2022-12-20T20:02:38.480Z,101752.97
2022-12-20T20:05:11.080Z,101751.09
2022-12-20T20:07:41.256Z,101764.19
2022-12-20T20:10:08.435Z,101766.69
2022-12-20T20:12:38.327Z,101770.53
2022-12-20T20:15:05.234Z,101767.19
2022-12-20T20:17:31.794Z,101769.22
2022-12-20T20:19:58.396Z,101769.91
2022-12-20T20:22:25.431Z,101762.91
2022-12-20T20:24:52.145Z,101764.75
2022-12-20T20:27:18.684Z,101757.25
2022-12-20T20:29:45.317Z,101761.31
2022-12-20T20:32:11.909Z,101753.00
2022-12-20T20:34:38.604Z,101755.50
2022-12-20T20:37:05.240Z,101768.06
2022-12-20T20:39:31.914Z,101758.53
2022-12-20T20:41:58.566Z,101759.06
2022-12-20T20:44:25.206Z,101751.88
2022-12-20T20:46:51.820Z,101739.31
2022-12-20T20:49:19.745Z,101752.56
2022-12-20T20:51:46.321Z,101737.66
2022-12-20T20:54:13.269Z,101747.38
2022-12-20T20:56:39.809Z,101737.84
2022-12-20T20:59:10.516Z,101735.66
2022-12-20T21:01:42.067Z,101749.31
2022-12-20T21:04:08.746Z,101749.00
2022-12-20T21:06:41.025Z,101741.63
2022-12-20T21:09:08.788Z,101751.97
2022-12-20T21:11:37.010Z,101749.28
2022-12-20T21:14:03.955Z,101746.38
2022-12-20T21:16:30.624Z,101756.19
2022-12-20T21:18:58.461Z,101758.03
2022-12-20T21:21:26.134Z,101754.69
2022-12-20T21:23:52.947Z,101747.53
2022-12-20T21:26:20.601Z,101748.56
2022-12-20T21:28:47.589Z,101764.41
2022-12-20T21:31:15.510Z,101761.75
2022-12-20T21:33:42.400Z,101757.91
2022-12-20T21:36:11.693Z,101763.44
2022-12-20T21:38:38.439Z,101760.75
2022-12-20T21:41:06.931Z,101745.47
2022-12-20T21:43:33.601Z,101737.47
2022-12-20T21:46:00.503Z,101742.28
2022-12-20T21:48:27.531Z,101736.81
2022-12-20T21:51:10.113Z,101733.63
2022-12-20T21:53:43.955Z,101745.16
2022-12-20T21:56:10.941Z,101745.94
2022-12-20T21:58:37.708Z,101742.28
2022-12-20T22:01:05.412Z,101744.59
2022-12-20T22:03:32.118Z,101750.78
2022-12-20T22:05:58.831Z,101738.44
2022-12-20T22:08:26.297Z,101748.44
2022-12-20T22:11:19.203Z,101749.28
2022-12-20T22:13:46.354Z,101744.59
2022-12-20T22:16:18.543Z,101731.75
2022-12-20T22:18:48.315Z,101732.09
2022-12-20T22:21:15.601Z,101740.94
2022-12-20T22:23:42.566Z,101745.59
2022-12-20T22:26:10.574Z,101738.44
2022-12-20T22:28:37.388Z,101736.44
2022-12-20T22:31:11.098Z,101730.25
2022-12-20T22:33:38.228Z,101730.47
2022-12-20T22:36:05.107Z,101738.28
2022-12-20T22:38:31.745Z,101733.63
2022-12-20T22:41:10.220Z,101729.13
2022-12-20T22:43:37.698Z,101729.63
2022-12-20T22:46:04.813Z,101735.25
2022-12-20T22:48:31.765Z,101738.25
2022-12-20T22:50:59.580Z,101740.59
2022-12-20T22:53:26.409Z,101727.25
2022-12-20T22:55:52.979Z,101731.47
2022-12-20T22:58:19.584Z,101728.41
2022-12-20T23:00:47.014Z,101723.94
2022-12-20T23:03:14.063Z,101725.09
2022-12-20T23:05:42.283Z,101724.59
2022-12-20T23:08:08.894Z,101733.44
2022-12-20T23:10:53.937Z,101734.13
2022-12-20T23:13:38.926Z,101734.81
2022-12-20T23:16:05.607Z,101747.78
2022-12-20T23:18:32.255Z,101737.28
2022-12-20T23:21:17.545Z,101730.75
2022-12-20T23:23:44.122Z,101720.06
2022-12-20T23:26:15.196Z,101709.59
2022-12-20T23:28:42.204Z,101714.72
2022-12-20T23:31:09.240Z,101711.53
2022-12-20T23:33:36.372Z,101695.16
2022-12-20T23:36:03.637Z,101697.47
2022-12-20T23:38:33.666Z,101698.63
2022-12-20T23:41:00.342Z,101699.28
2022-12-20T23:43:30.385Z,101692.75
2022-12-20T23:46:05.091Z,101696.47
2022-12-20T23:48:32.212Z,101714.50
2022-12-20T23:50:59.286Z,101719.84
2022-12-20T23:53:26.253Z,101733.50
2022-12-20T23:56:12.061Z,101742.63
2022-12-20T23:58:38.971Z,101736.56
